sensor_id;sensor_type;location;lat;lon;timestamp;P1;P2;P0
51052;PMS5003;37093;37.716;-122.060;2023-03-17T00:01:44;9;6;
51052;PMS5003;37093;37.716;-122.060;2023-03-17T00:04:14;5;5;
51052;PMS5003;37093;37.716;-122.060;2023-03-17T00:06:43;8;3;
51052;PMS5003;37093;37.716;-122.060;2023-03-17T00:09:12;6;4;
51052;PMS5003;37093;37.716;-122.060;2023-03-17T00:11:42;7;4;
51052;PMS5003;37093;37.716;-122.060;2023-03-17T00:14:11;7;6;
51052;PMS5003;37093;37.716;-122.060;2023-03-17T00:16:40;7;4;
51052;PMS5003;37093;37.716;-122.060;2023-03-17T00:19:11;7;4;
51052;PMS5003;37093;37.716;-122.060;2023-03-17T00:21:42;9;7;
51052;PMS5003;37093;37.716;-122.060;2023-03-17T00:24:11;5;3;
51052;PMS5003;37093;37.716;-122.060;2023-03-17T00:26:40;7;4;
51052;PMS5003;37093;37.716;-122.060;2023-03-17T00:29:09;14;5;
51052;PMS5003;37093;37.716;-122.060;2023-03-17T00:31:37;6;5;
51052;PMS5003;37093;37.716;-122.060;2023-03-17T00:34:08;6;5;
51052;PMS5003;37093;37.716;-122.060;2023-03-17T00:36:40;7;4;
51052;PMS5003;37093;37.716;-122.060;2023-03-17T00:39:12;8;6;
51052;PMS5003;37093;37.716;-122.060;2023-03-17T00:41:41;15;7;
51052;PMS5003;37093;37.716;-122.060;2023-03-17T00:44:09;7;6;
51052;PMS5003;37093;37.716;-122.060;2023-03-17T00:46:38;7;6;
51052;PMS5003;37093;37.716;-122.060;2023-03-17T00:49:11;8;5;
51052;PMS5003;37093;37.716;-122.060;2023-03-17T00:51:42;11;5;
51052;PMS5003;37093;37.716;-122.060;2023-03-17T00:54:12;7;5;
51052;PMS5003;37093;37.716;-122.060;2023-03-17T00:56:41;17;4;
51052;PMS5003;37093;37.716;-122.060;2023-03-17T00:59:13;8;7;
51052;PMS5003;37093;37.716;-122.060;2023-03-17T01:01:46;4;4;
51052;PMS5003;37093;37.716;-122.060;2023-03-17T01:04:14;7;6;
51052;PMS5003;37093;37.716;-122.060;2023-03-17T01:06:42;6;3;
51052;PMS5003;37093;37.716;-122.060;2023-03-17T01:09:11;7;5;
51052;PMS5003;37093;37.716;-122.060;2023-03-17T01:11:42;5;5;
51052;PMS5003;37093;37.716;-122.060;2023-03-17T01:14:11;6;5;
51052;PMS5003;37093;37.716;-122.060;2023-03-17T01:16:39;5;4;
51052;PMS5003;37093;37.716;-122.060;2023-03-17T01:19:08;5;5;
51052;PMS5003;37093;37.716;-122.060;2023-03-17T01:21:37;8;6;
51052;PMS5003;37093;37.716;-122.060;2023-03-17T01:24:07;6;4;
51052;PMS5003;37093;37.716;-122.060;2023-03-17T01:26:35;8;5;
51052;PMS5003;37093;37.716;-122.060;2023-03-17T01:29:04;10;8;
51052;PMS5003;37093;37.716;-122.060;2023-03-17T01:31:32;6;5;
51052;PMS5003;37093;37.716;-122.060;2023-03-17T01:34:00;9;5;
51052;PMS5003;37093;37.716;-122.060;2023-03-17T01:36:29;6;4;
51052;PMS5003;37093;37.716;-122.060;2023-03-17T01:38:58;6;6;
51052;PMS5003;37093;37.716;-122.060;2023-03-17T01:41:26;4;4;
51052;PMS5003;37093;37.716;-122.060;2023-03-17T01:43:54;13;5;
51052;PMS5003;37093;37.716;-122.060;2023-03-17T01:46:24;7;5;
51052;PMS5003;37093;37.716;-122.060;2023-03-17T01:48:57;8;4;
51052;PMS5003;37093;37.716;-122.060;2023-03-17T01:51:32;7;5;
51052;PMS5003;37093;37.716;-122.060;2023-03-17T01:54:06;6;6;
51052;PMS5003;37093;37.716;-122.060;2023-03-17T01:56:36;19;5;
51052;PMS5003;37093;37.716;-122.060;2023-03-17T01:59:07;6;5;
51052;PMS5003;37093;37.716;-122.060;2023-03-17T02:01:41;12;4;
51052;PMS5003;37093;37.716;-122.060;2023-03-17T02:04:12;5;4;
51052;PMS5003;37093;37.716;-122.060;2023-03-17T02:06:42;5;5;
51052;PMS5003;37093;37.716;-122.060;2023-03-17T02:09:12;8;4;
51052;PMS5003;37093;37.716;-122.060;2023-03-17T02:11:40;8;7;
51052;PMS5003;37093;37.716;-122.060;2023-03-17T02:14:10;5;4;
51052;PMS5003;37093;37.716;-122.060;2023-03-17T02:16:38;7;6;
51052;PMS5003;37093;37.716;-122.060;2023-03-17T02:19:07;4;4;
51052;PMS5003;37093;37.716;-122.060;2023-03-17T02:21:37;5;4;
51052;PMS5003;37093;37.716;-122.060;2023-03-17T02:24:11;8;6;
51052;PMS5003;37093;37.716;-122.060;2023-03-17T02:26:45;8;4;
51052;PMS5003;37093;37.716;-122.060;2023-03-17T02:29:15;10;6;
51052;PMS5003;37093;37.716;-122.060;2023-03-17T02:31:46;11;9;
51052;PMS5003;37093;37.716;-122.060;2023-03-17T02:34:15;6;5;
51052;PMS5003;37093;37.716;-122.060;2023-03-17T02:36:43;5;4;
51052;PMS5003;37093;37.716;-122.060;2023-03-17T02:39:12;7;5;
51052;PMS5003;37093;37.716;-122.060;2023-03-17T02:41:40;12;7;
51052;PMS5003;37093;37.716;-122.060;2023-03-17T02:44:08;15;6;
51052;PMS5003;37093;37.716;-122.060;2023-03-17T02:46:36;10;7;
51052;PMS5003;37093;37.716;-122.060;2023-03-17T02:49:05;5;5;
51052;PMS5003;37093;37.716;-122.060;2023-03-17T02:51:33;9;7;
51052;PMS5003;37093;37.716;-122.060;2023-03-17T02:54:02;5;5;
51052;PMS5003;37093;37.716;-122.060;2023-03-17T02:56:30;5;5;
51052;PMS5003;37093;37.716;-122.060;2023-03-17T02:58:59;11;7;
51052;PMS5003;37093;37.716;-122.060;2023-03-17T03:01:27;8;5;
51052;PMS5003;37093;37.716;-122.060;2023-03-17T03:03:56;17;9;
51052;PMS5003;37093;37.716;-122.060;2023-03-17T03:06:26;8;5;
51052;PMS5003;37093;37.716;-122.060;2023-03-17T03:08:54;6;5;
51052;PMS5003;37093;37.716;-122.060;2023-03-17T03:11:22;8;5;
51052;PMS5003;37093;37.716;-122.060;2023-03-17T03:13:51;6;6;
51052;PMS5003;37093;37.716;-122.060;2023-03-17T03:16:19;11;7;
51052;PMS5003;37093;37.716;-122.060;2023-03-17T03:18:48;5;4;
51052;PMS5003;37093;37.716;-122.060;2023-03-17T03:21:17;5;5;
51052;PMS5003;37093;37.716;-122.060;2023-03-17T03:23:45;8;5;
51052;PMS5003;37093;37.716;-122.060;2023-03-17T03:26:14;4;4;
51052;PMS5003;37093;37.716;-122.060;2023-03-17T03:28:42;17;6;
51052;PMS5003;37093;37.716;-122.060;2023-03-17T03:31:11;7;4;
51052;PMS5003;37093;37.716;-122.060;2023-03-17T03:33:39;11;7;
51052;PMS5003;37093;37.716;-122.060;2023-03-17T03:36:09;11;6;
51052;PMS5003;37093;37.716;-122.060;2023-03-17T03:38:38;7;5;
51052;PMS5003;37093;37.716;-122.060;2023-03-17T03:41:06;8;6;
51052;PMS5003;37093;37.716;-122.060;2023-03-17T03:43:34;9;7;
51052;PMS5003;37093;37.716;-122.060;2023-03-17T03:46:03;10;5;
51052;PMS5003;37093;37.716;-122.060;2023-03-17T03:48:32;9;7;
51052;PMS5003;37093;37.716;-122.060;2023-03-17T03:51:01;7;5;
51052;PMS5003;37093;37.716;-122.060;2023-03-17T03:53:30;7;6;
51052;PMS5003;37093;37.716;-122.060;2023-03-17T03:55:58;11;7;
51052;PMS5003;37093;37.716;-122.060;2023-03-17T03:58:27;6;4;
51052;PMS5003;37093;37.716;-122.060;2023-03-17T04:00:56;5;5;
51052;PMS5003;37093;37.716;-122.060;2023-03-17T04:03:24;13;6;
51052;PMS5003;37093;37.716;-122.060;2023-03-17T04:05:52;8;5;
51052;PMS5003;37093;37.716;-122.060;2023-03-17T04:08:21;7;4;
51052;PMS5003;37093;37.716;-122.060;2023-03-17T04:10:49;7;5;
51052;PMS5003;37093;37.716;-122.060;2023-03-17T04:13:18;4;4;
51052;PMS5003;37093;37.716;-122.060;2023-03-17T04:15:46;10;6;
51052;PMS5003;37093;37.716;-122.060;2023-03-17T04:18:14;12;6;
51052;PMS5003;37093;37.716;-122.060;2023-03-17T04:20:42;9;6;
51052;PMS5003;37093;37.716;-122.060;2023-03-17T04:23:11;9;5;
51052;PMS5003;37093;37.716;-122.060;2023-03-17T04:25:40;8;5;
51052;PMS5003;37093;37.716;-122.060;2023-03-17T04:28:08;9;7;
51052;PMS5003;37093;37.716;-122.060;2023-03-17T04:30:36;10;5;
51052;PMS5003;37093;37.716;-122.060;2023-03-17T04:33:05;9;5;
51052;PMS5003;37093;37.716;-122.060;2023-03-17T04:35:33;16;7;
51052;PMS5003;37093;37.716;-122.060;2023-03-17T04:38:02;8;6;
51052;PMS5003;37093;37.716;-122.060;2023-03-17T04:40:31;7;5;
51052;PMS5003;37093;37.716;-122.060;2023-03-17T04:43:00;6;4;
51052;PMS5003;37093;37.716;-122.060;2023-03-17T04:45:28;8;5;
51052;PMS5003;37093;37.716;-122.060;2023-03-17T04:47:57;10;6;
51052;PMS5003;37093;37.716;-122.060;2023-03-17T04:50:25;6;5;
51052;PMS5003;37093;37.716;-122.060;2023-03-17T04:52:54;7;4;
51052;PMS5003;37093;37.716;-122.060;2023-03-17T04:55:22;9;5;
51052;PMS5003;37093;37.716;-122.060;2023-03-17T04:57:51;11;8;
51052;PMS5003;37093;37.716;-122.060;2023-03-17T05:00:20;10;4;
51052;PMS5003;37093;37.716;-122.060;2023-03-17T05:02:48;8;5;
51052;PMS5003;37093;37.716;-122.060;2023-03-17T05:05:16;9;6;
51052;PMS5003;37093;37.716;-122.060;2023-03-17T05:07:45;12;6;
51052;PMS5003;37093;37.716;-122.060;2023-03-17T05:10:14;4;4;
51052;PMS5003;37093;37.716;-122.060;2023-03-17T05:12:42;5;5;
51052;PMS5003;37093;37.716;-122.060;2023-03-17T05:15:10;10;5;
51052;PMS5003;37093;37.716;-122.060;2023-03-17T05:17:39;8;5;
51052;PMS5003;37093;37.716;-122.060;2023-03-17T05:20:08;5;5;
51052;PMS5003;37093;37.716;-122.060;2023-03-17T05:22:37;7;6;
51052;PMS5003;37093;37.716;-122.060;2023-03-17T05:25:05;10;5;
51052;PMS5003;37093;37.716;-122.060;2023-03-17T05:27:34;9;5;
51052;PMS5003;37093;37.716;-122.060;2023-03-17T05:30:04;8;5;
51052;PMS5003;37093;37.716;-122.060;2023-03-17T05:32:33;15;7;
51052;PMS5003;37093;37.716;-122.060;2023-03-17T05:35:02;9;6;
51052;PMS5003;37093;37.716;-122.060;2023-03-17T05:37:30;8;6;
51052;PMS5003;37093;37.716;-122.060;2023-03-17T05:39:59;5;5;
51052;PMS5003;37093;37.716;-122.060;2023-03-17T05:42:27;7;6;
51052;PMS5003;37093;37.716;-122.060;2023-03-17T05:44:55;10;8;
51052;PMS5003;37093;37.716;-122.060;2023-03-17T05:47:24;5;4;
51052;PMS5003;37093;37.716;-122.060;2023-03-17T05:49:53;12;6;
51052;PMS5003;37093;37.716;-122.060;2023-03-17T05:52:21;7;6;
51052;PMS5003;37093;37.716;-122.060;2023-03-17T05:54:49;6;5;
51052;PMS5003;37093;37.716;-122.060;2023-03-17T05:57:18;7;6;
51052;PMS5003;37093;37.716;-122.060;2023-03-17T05:59:47;11;6;
51052;PMS5003;37093;37.716;-122.060;2023-03-17T06:02:15;6;5;
51052;PMS5003;37093;37.716;-122.060;2023-03-17T06:04:43;5;4;
51052;PMS5003;37093;37.716;-122.060;2023-03-17T06:07:12;8;5;
51052;PMS5003;37093;37.716;-122.060;2023-03-17T06:09:40;7;4;
51052;PMS5003;37093;37.716;-122.060;2023-03-17T06:12:09;10;5;
51052;PMS5003;37093;37.716;-122.060;2023-03-17T06:14:37;6;6;
51052;PMS5003;37093;37.716;-122.060;2023-03-17T06:17:06;9;4;
51052;PMS5003;37093;37.716;-122.060;2023-03-17T06:19:34;5;4;
51052;PMS5003;37093;37.716;-122.060;2023-03-17T06:22:03;6;5;
51052;PMS5003;37093;37.716;-122.060;2023-03-17T06:24:32;13;6;
51052;PMS5003;37093;37.716;-122.060;2023-03-17T06:27:00;7;5;
51052;PMS5003;37093;37.716;-122.060;2023-03-17T06:29:28;6;4;
51052;PMS5003;37093;37.716;-122.060;2023-03-17T06:31:57;8;7;
51052;PMS5003;37093;37.716;-122.060;2023-03-17T06:34:25;6;6;
51052;PMS5003;37093;37.716;-122.060;2023-03-17T06:36:54;8;5;
51052;PMS5003;37093;37.716;-122.060;2023-03-17T06:39:23;9;4;
51052;PMS5003;37093;37.716;-122.060;2023-03-17T06:41:52;6;5;
51052;PMS5003;37093;37.716;-122.060;2023-03-17T06:44:20;6;5;
51052;PMS5003;37093;37.716;-122.060;2023-03-17T06:46:49;6;5;
51052;PMS5003;37093;37.716;-122.060;2023-03-17T06:49:18;7;5;
51052;PMS5003;37093;37.716;-122.060;2023-03-17T06:51:46;9;4;
51052;PMS5003;37093;37.716;-122.060;2023-03-17T06:54:14;16;4;
51052;PMS5003;37093;37.716;-122.060;2023-03-17T06:56:43;5;5;
51052;PMS5003;37093;37.716;-122.060;2023-03-17T06:59:12;10;5;
51052;PMS5003;37093;37.716;-122.060;2023-03-17T07:01:08;5;4;
51052;PMS5003;37093;37.716;-122.060;2023-03-17T07:03:38;9;5;
51052;PMS5003;37093;37.716;-122.060;2023-03-17T07:06:07;6;6;
51052;PMS5003;37093;37.716;-122.060;2023-03-17T07:08:36;9;5;
51052;PMS5003;37093;37.716;-122.060;2023-03-17T07:11:04;9;7;
51052;PMS5003;37093;37.716;-122.060;2023-03-17T07:13:33;10;5;
51052;PMS5003;37093;37.716;-122.060;2023-03-17T07:16:01;11;7;
51052;PMS5003;37093;37.716;-122.060;2023-03-17T07:18:30;11;6;
51052;PMS5003;37093;37.716;-122.060;2023-03-17T07:20:58;6;5;
51052;PMS5003;37093;37.716;-122.060;2023-03-17T07:23:27;7;5;
51052;PMS5003;37093;37.716;-122.060;2023-03-17T07:25:56;7;4;
51052;PMS5003;37093;37.716;-122.060;2023-03-17T07:28:24;8;6;
51052;PMS5003;37093;37.716;-122.060;2023-03-17T07:30:52;7;5;
51052;PMS5003;37093;37.716;-122.060;2023-03-17T07:33:21;7;6;
51052;PMS5003;37093;37.716;-122.060;2023-03-17T07:35:50;9;4;
51052;PMS5003;37093;37.716;-122.060;2023-03-17T07:38:18;10;7;
51052;PMS5003;37093;37.716;-122.060;2023-03-17T07:40:47;9;7;
51052;PMS5003;37093;37.716;-122.060;2023-03-17T07:43:15;17;7;
51052;PMS5003;37093;37.716;-122.060;2023-03-17T07:45:44;7;5;
51052;PMS5003;37093;37.716;-122.060;2023-03-17T07:48:12;6;4;
51052;PMS5003;37093;37.716;-122.060;2023-03-17T07:50:41;7;6;
51052;PMS5003;37093;37.716;-122.060;2023-03-17T07:53:09;8;6;
51052;PMS5003;37093;37.716;-122.060;2023-03-17T07:55:39;5;4;
51052;PMS5003;37093;37.716;-122.060;2023-03-17T07:58:07;6;4;
51052;PMS5003;37093;37.716;-122.060;2023-03-17T08:00:36;6;4;
51052;PMS5003;37093;37.716;-122.060;2023-03-17T08:03:04;12;7;
51052;PMS5003;37093;37.716;-122.060;2023-03-17T08:05:32;9;6;
51052;PMS5003;37093;37.716;-122.060;2023-03-17T08:08:01;6;3;
51052;PMS5003;37093;37.716;-122.060;2023-03-17T08:10:30;6;5;
51052;PMS5003;37093;37.716;-122.060;2023-03-17T08:12:58;8;7;
51052;PMS5003;37093;37.716;-122.060;2023-03-17T08:15:27;14;4;
51052;PMS5003;37093;37.716;-122.060;2023-03-17T08:17:54;10;8;
51052;PMS5003;37093;37.716;-122.060;2023-03-17T08:20:23;15;6;
51052;PMS5003;37093;37.716;-122.060;2023-03-17T08:22:51;5;4;
51052;PMS5003;37093;37.716;-122.060;2023-03-17T08:25:20;9;5;
51052;PMS5003;37093;37.716;-122.060;2023-03-17T08:27:49;12;5;
51052;PMS5003;37093;37.716;-122.060;2023-03-17T08:30:18;10;6;
51052;PMS5003;37093;37.716;-122.060;2023-03-17T08:32:46;8;6;
51052;PMS5003;37093;37.716;-122.060;2023-03-17T08:35:16;10;7;
51052;PMS5003;37093;37.716;-122.060;2023-03-17T08:37:44;5;5;
51052;PMS5003;37093;37.716;-122.060;2023-03-17T08:40:14;18;5;
51052;PMS5003;37093;37.716;-122.060;2023-03-17T08:42:44;7;6;
51052;PMS5003;37093;37.716;-122.060;2023-03-17T08:45:14;8;4;
51052;PMS5003;37093;37.716;-122.060;2023-03-17T08:47:43;7;7;
51052;PMS5003;37093;37.716;-122.060;2023-03-17T08:50:15;6;5;
51052;PMS5003;37093;37.716;-122.060;2023-03-17T08:52:45;5;4;
51052;PMS5003;37093;37.716;-122.060;2023-03-17T08:55:14;7;6;
51052;PMS5003;37093;37.716;-122.060;2023-03-17T08:57:43;17;9;
51052;PMS5003;37093;37.716;-122.060;2023-03-17T09:00:13;9;5;
51052;PMS5003;37093;37.716;-122.060;2023-03-17T09:02:44;5;4;
51052;PMS5003;37093;37.716;-122.060;2023-03-17T09:05:13;6;4;
51052;PMS5003;37093;37.716;-122.060;2023-03-17T09:07:42;5;5;
51052;PMS5003;37093;37.716;-122.060;2023-03-17T09:10:11;18;6;
51052;PMS5003;37093;37.716;-122.060;2023-03-17T09:12:39;12;5;
51052;PMS5003;37093;37.716;-122.060;2023-03-17T09:15:10;16;5;
51052;PMS5003;37093;37.716;-122.060;2023-03-17T09:17:38;11;5;
51052;PMS5003;37093;37.716;-122.060;2023-03-17T09:20:08;6;3;
51052;PMS5003;37093;37.716;-122.060;2023-03-17T09:22:36;7;6;
51052;PMS5003;37093;37.716;-122.060;2023-03-17T09:25:05;8;6;
51052;PMS5003;37093;37.716;-122.060;2023-03-17T09:27:35;7;6;
51052;PMS5003;37093;37.716;-122.060;2023-03-17T09:30:03;8;8;
51052;PMS5003;37093;37.716;-122.060;2023-03-17T09:32:33;6;3;
51052;PMS5003;37093;37.716;-122.060;2023-03-17T09:35:02;11;5;
51052;PMS5003;37093;37.716;-122.060;2023-03-17T09:37:31;5;5;
51052;PMS5003;37093;37.716;-122.060;2023-03-17T09:40:00;12;7;
51052;PMS5003;37093;37.716;-122.060;2023-03-17T09:42:33;6;6;
51052;PMS5003;37093;37.716;-122.060;2023-03-17T09:45:11;5;4;
51052;PMS5003;37093;37.716;-122.060;2023-03-17T09:47:56;7;5;
51052;PMS5003;37093;37.716;-122.060;2023-03-17T09:50:35;10;7;
51052;PMS5003;37093;37.716;-122.060;2023-03-17T09:53:13;9;7;
51052;PMS5003;37093;37.716;-122.060;2023-03-17T09:55:46;10;9;
51052;PMS5003;37093;37.716;-122.060;2023-03-17T09:58:19;12;7;
51052;PMS5003;37093;37.716;-122.060;2023-03-17T10:00:52;6;6;
51052;PMS5003;37093;37.716;-122.060;2023-03-17T10:03:21;8;5;
51052;PMS5003;37093;37.716;-122.060;2023-03-17T10:05:50;8;6;
51052;PMS5003;37093;37.716;-122.060;2023-03-17T10:08:20;12;6;
51052;PMS5003;37093;37.716;-122.060;2023-03-17T10:10:53;11;8;
51052;PMS5003;37093;37.716;-122.060;2023-03-17T10:13:30;6;4;
51052;PMS5003;37093;37.716;-122.060;2023-03-17T10:16:13;8;7;
51052;PMS5003;37093;37.716;-122.060;2023-03-17T10:18:45;9;5;
51052;PMS5003;37093;37.716;-122.060;2023-03-17T10:21:20;13;9;
51052;PMS5003;37093;37.716;-122.060;2023-03-17T10:23:53;11;7;
51052;PMS5003;37093;37.716;-122.060;2023-03-17T10:26:25;7;6;
51052;PMS5003;37093;37.716;-122.060;2023-03-17T10:28:56;8;5;
51052;PMS5003;37093;37.716;-122.060;2023-03-17T10:31:28;9;6;
51052;PMS5003;37093;37.716;-122.060;2023-03-17T10:34:02;7;6;
51052;PMS5003;37093;37.716;-122.060;2023-03-17T10:36:39;8;5;
51052;PMS5003;37093;37.716;-122.060;2023-03-17T10:39:12;8;6;
51052;PMS5003;37093;37.716;-122.060;2023-03-17T10:41:47;12;5;
51052;PMS5003;37093;37.716;-122.060;2023-03-17T10:44:22;7;6;
51052;PMS5003;37093;37.716;-122.060;2023-03-17T10:47:17;8;5;
51052;PMS5003;37093;37.716;-122.060;2023-03-17T10:49:49;9;6;
51052;PMS5003;37093;37.716;-122.060;2023-03-17T10:52:19;9;7;
51052;PMS5003;37093;37.716;-122.060;2023-03-17T10:54:51;13;7;
51052;PMS5003;37093;37.716;-122.060;2023-03-17T10:57:20;7;5;
51052;PMS5003;37093;37.716;-122.060;2023-03-17T10:59:49;7;6;
51052;PMS5003;37093;37.716;-122.060;2023-03-17T11:02:20;6;4;
51052;PMS5003;37093;37.716;-122.060;2023-03-17T11:04:53;6;5;
51052;PMS5003;37093;37.716;-122.060;2023-03-17T11:07:27;9;7;
51052;PMS5003;37093;37.716;-122.060;2023-03-17T11:10:02;3;3;
51052;PMS5003;37093;37.716;-122.060;2023-03-17T11:12:41;13;7;
51052;PMS5003;37093;37.716;-122.060;2023-03-17T11:15:10;8;5;
51052;PMS5003;37093;37.716;-122.060;2023-03-17T11:17:43;6;6;
51052;PMS5003;37093;37.716;-122.060;2023-03-17T11:20:22;6;5;
51052;PMS5003;37093;37.716;-122.060;2023-03-17T11:23:03;11;7;
51052;PMS5003;37093;37.716;-122.060;2023-03-17T11:25:37;8;6;
51052;PMS5003;37093;37.716;-122.060;2023-03-17T11:28:12;10;5;
51052;PMS5003;37093;37.716;-122.060;2023-03-17T11:30:47;11;9;
51052;PMS5003;37093;37.716;-122.060;2023-03-17T11:33:27;19;8;
51052;PMS5003;37093;37.716;-122.060;2023-03-17T11:36:02;8;5;
51052;PMS5003;37093;37.716;-122.060;2023-03-17T11:38:41;8;8;
51052;PMS5003;37093;37.716;-122.060;2023-03-17T11:41:24;10;6;
51052;PMS5003;37093;37.716;-122.060;2023-03-17T11:44:04;9;7;
51052;PMS5003;37093;37.716;-122.060;2023-03-17T11:46:54;11;5;
51052;PMS5003;37093;37.716;-122.060;2023-03-17T11:49:31;10;6;
51052;PMS5003;37093;37.716;-122.060;2023-03-17T11:52:04;6;6;
51052;PMS5003;37093;37.716;-122.060;2023-03-17T11:54:45;6;5;
51052;PMS5003;37093;37.716;-122.060;2023-03-17T11:57:20;6;5;
51052;PMS5003;37093;37.716;-122.060;2023-03-17T11:59:53;6;4;
51052;PMS5003;37093;37.716;-122.060;2023-03-17T12:02:28;7;5;
51052;PMS5003;37093;37.716;-122.060;2023-03-17T12:05:04;5;4;
51052;PMS5003;37093;37.716;-122.060;2023-03-17T12:07:36;10;6;
51052;PMS5003;37093;37.716;-122.060;2023-03-17T12:10:12;6;5;
51052;PMS5003;37093;37.716;-122.060;2023-03-17T12:12:49;6;4;
51052;PMS5003;37093;37.716;-122.060;2023-03-17T12:15:24;9;6;
51052;PMS5003;37093;37.716;-122.060;2023-03-17T12:17:58;9;6;
51052;PMS5003;37093;37.716;-122.060;2023-03-17T12:20:32;6;6;
51052;PMS5003;37093;37.716;-122.060;2023-03-17T12:23:15;8;6;
51052;PMS5003;37093;37.716;-122.060;2023-03-17T12:25:53;9;7;
51052;PMS5003;37093;37.716;-122.060;2023-03-17T12:28:25;20;5;
51052;PMS5003;37093;37.716;-122.060;2023-03-17T12:31:00;7;6;
51052;PMS5003;37093;37.716;-122.060;2023-03-17T12:33:34;6;6;
51052;PMS5003;37093;37.716;-122.060;2023-03-17T12:36:08;8;7;
51052;PMS5003;37093;37.716;-122.060;2023-03-17T12:38:41;7;7;
51052;PMS5003;37093;37.716;-122.060;2023-03-17T12:41:27;16;8;
51052;PMS5003;37093;37.716;-122.060;2023-03-17T12:44:11;6;5;
51052;PMS5003;37093;37.716;-122.060;2023-03-17T12:47:00;7;4;
51052;PMS5003;37093;37.716;-122.060;2023-03-17T12:49:44;5;4;
51052;PMS5003;37093;37.716;-122.060;2023-03-17T12:52:25;12;5;
51052;PMS5003;37093;37.716;-122.060;2023-03-17T12:55:06;19;8;
51052;PMS5003;37093;37.716;-122.060;2023-03-17T12:57:39;13;5;
51052;PMS5003;37093;37.716;-122.060;2023-03-17T13:00:26;14;7;
51052;PMS5003;37093;37.716;-122.060;2023-03-17T13:03:16;8;4;
51052;PMS5003;37093;37.716;-122.060;2023-03-17T13:05:49;10;7;
51052;PMS5003;37093;37.716;-122.060;2023-03-17T13:08:22;11;7;
51052;PMS5003;37093;37.716;-122.060;2023-03-17T13:11:12;9;7;
51052;PMS5003;37093;37.716;-122.060;2023-03-17T13:13:49;13;7;
51052;PMS5003;37093;37.716;-122.060;2023-03-17T13:16:33;6;5;
51052;PMS5003;37093;37.716;-122.060;2023-03-17T13:19:10;7;5;
51052;PMS5003;37093;37.716;-122.060;2023-03-17T13:21:43;10;8;
51052;PMS5003;37093;37.716;-122.060;2023-03-17T13:24:22;7;4;
51052;PMS5003;37093;37.716;-122.060;2023-03-17T13:27:11;9;6;
51052;PMS5003;37093;37.716;-122.060;2023-03-17T13:29:42;8;6;
51052;PMS5003;37093;37.716;-122.060;2023-03-17T13:32:28;8;6;
51052;PMS5003;37093;37.716;-122.060;2023-03-17T13:35:17;9;7;
51052;PMS5003;37093;37.716;-122.060;2023-03-17T13:37:55;14;10;
51052;PMS5003;37093;37.716;-122.060;2023-03-17T13:40:52;14;10;
51052;PMS5003;37093;37.716;-122.060;2023-03-17T13:43:47;10;9;
51052;PMS5003;37093;37.716;-122.060;2023-03-17T13:46:37;11;9;
51052;PMS5003;37093;37.716;-122.060;2023-03-17T13:49:17;15;9;
51052;PMS5003;37093;37.716;-122.060;2023-03-17T13:51:51;10;7;
51052;PMS5003;37093;37.716;-122.060;2023-03-17T13:54:27;14;11;
51052;PMS5003;37093;37.716;-122.060;2023-03-17T13:56:58;10;9;
51052;PMS5003;37093;37.716;-122.060;2023-03-17T13:59:58;17;9;
51052;PMS5003;37093;37.716;-122.060;2023-03-17T14:02:29;8;8;
51052;PMS5003;37093;37.716;-122.060;2023-03-17T14:05:02;10;9;
51052;PMS5003;37093;37.716;-122.060;2023-03-17T14:07:34;13;8;
51052;PMS5003;37093;37.716;-122.060;2023-03-17T14:10:11;16;12;
51052;PMS5003;37093;37.716;-122.060;2023-03-17T14:12:48;13;10;
51052;PMS5003;37093;37.716;-122.060;2023-03-17T14:15:25;15;13;
51052;PMS5003;37093;37.716;-122.060;2023-03-17T14:17:58;15;11;
51052;PMS5003;37093;37.716;-122.060;2023-03-17T14:20:30;12;10;
51052;PMS5003;37093;37.716;-122.060;2023-03-17T14:22:59;21;13;
51052;PMS5003;37093;37.716;-122.060;2023-03-17T14:25:30;24;17;
51052;PMS5003;37093;37.716;-122.060;2023-03-17T14:28:00;19;13;
51052;PMS5003;37093;37.716;-122.060;2023-03-17T14:30:33;22;15;
51052;PMS5003;37093;37.716;-122.060;2023-03-17T14:33:03;27;16;
51052;PMS5003;37093;37.716;-122.060;2023-03-17T14:35:40;26;15;
51052;PMS5003;37093;37.716;-122.060;2023-03-17T14:38:14;36;20;
51052;PMS5003;37093;37.716;-122.060;2023-03-17T14:40:46;24;17;
51052;PMS5003;37093;37.716;-122.060;2023-03-17T14:43:14;24;18;
51052;PMS5003;37093;37.716;-122.060;2023-03-17T14:45:46;22;15;
51052;PMS5003;37093;37.716;-122.060;2023-03-17T14:48:16;24;16;
51052;PMS5003;37093;37.716;-122.060;2023-03-17T14:50:50;30;14;
51052;PMS5003;37093;37.716;-122.060;2023-03-17T14:53:21;21;16;
51052;PMS5003;37093;37.716;-122.060;2023-03-17T14:55:51;22;17;
51052;PMS5003;37093;37.716;-122.060;2023-03-17T14:58:21;19;15;
51052;PMS5003;37093;37.716;-122.060;2023-03-17T15:00:53;18;18;
51052;PMS5003;37093;37.716;-122.060;2023-03-17T15:03:23;22;15;
51052;PMS5003;37093;37.716;-122.060;2023-03-17T15:06:05;20;18;
51052;PMS5003;37093;37.716;-122.060;2023-03-17T15:08:47;33;15;
51052;PMS5003;37093;37.716;-122.060;2023-03-17T15:11:19;23;18;
51052;PMS5003;37093;37.716;-122.060;2023-03-17T15:13:52;27;17;
51052;PMS5003;37093;37.716;-122.060;2023-03-17T15:16:32;39;17;
51052;PMS5003;37093;37.716;-122.060;2023-03-17T15:19:04;16;14;
51052;PMS5003;37093;37.716;-122.060;2023-03-17T15:21:36;26;15;
51052;PMS5003;37093;37.716;-122.060;2023-03-17T15:24:20;31;16;
51052;PMS5003;37093;37.716;-122.060;2023-03-17T15:26:57;23;13;
51052;PMS5003;37093;37.716;-122.060;2023-03-17T15:29:27;25;16;
51052;PMS5003;37093;37.716;-122.060;2023-03-17T15:32:00;22;15;
51052;PMS5003;37093;37.716;-122.060;2023-03-17T15:34:36;20;14;
51052;PMS5003;37093;37.716;-122.060;2023-03-17T15:37:08;23;15;
51052;PMS5003;37093;37.716;-122.060;2023-03-17T15:39:43;20;15;
51052;PMS5003;37093;37.716;-122.060;2023-03-17T15:42:12;29;17;
51052;PMS5003;37093;37.716;-122.060;2023-03-17T15:44:41;21;18;
51052;PMS5003;37093;37.716;-122.060;2023-03-17T15:47:11;34;17;
51052;PMS5003;37093;37.716;-122.060;2023-03-17T15:49:41;18;17;
51052;PMS5003;37093;37.716;-122.060;2023-03-17T15:52:13;21;17;
51052;PMS5003;37093;37.716;-122.060;2023-03-17T15:54:44;22;17;
51052;PMS5003;37093;37.716;-122.060;2023-03-17T15:57:13;21;17;
51052;PMS5003;37093;37.716;-122.060;2023-03-17T15:59:41;19;16;
51052;PMS5003;37093;37.716;-122.060;2023-03-17T16:02:14;19;16;
51052;PMS5003;37093;37.716;-122.060;2023-03-17T16:04:51;19;13;
51052;PMS5003;37093;37.716;-122.060;2023-03-17T16:07:20;15;14;
51052;PMS5003;37093;37.716;-122.060;2023-03-17T16:09:49;20;15;
51052;PMS5003;37093;37.716;-122.060;2023-03-17T16:12:17;13;13;
51052;PMS5003;37093;37.716;-122.060;2023-03-17T16:14:46;16;11;
51052;PMS5003;37093;37.716;-122.060;2023-03-17T16:17:16;16;13;
51052;PMS5003;37093;37.716;-122.060;2023-03-17T16:19:49;25;13;
51052;PMS5003;37093;37.716;-122.060;2023-03-17T16:22:33;11;11;